createdAt,value
2019-01-23T00:02:41.084Z,7.93
2019-01-23T00:07:49.505Z,10.93
2019-01-23T00:12:56.117Z,6.40
2019-01-23T00:18:03.562Z,13.33
2019-01-23T00:23:09.841Z,9.57
2019-01-23T00:28:16.355Z,11.93
2019-01-23T00:33:23.795Z,12.80
2019-01-23T00:38:31.724Z,10.60
2019-01-23T00:43:38.954Z,10.20
2019-01-23T00:48:46.559Z,10.73
2019-01-23T00:53:53.889Z,13.47
2019-01-23T00:59:01.904Z,11.50
2019-01-23T01:04:08.891Z,12.27
2019-01-23T01:09:18.253Z,11.33
2019-01-23T01:14:24.347Z,13.73
2019-01-23T01:19:31.824Z,11.37
2019-01-23T01:24:38.863Z,12.07
2019-01-23T01:29:47.093Z,11.43
2019-01-23T01:34:53.390Z,14.40
2019-01-23T01:40:00.825Z,9.73
2019-01-23T01:45:08.347Z,12.77
2019-01-23T01:50:16.633Z,11.40
2019-01-23T01:55:22.610Z,11.07
2019-01-23T02:00:30.369Z,9.83
2019-01-23T02:05:37.426Z,8.13
2019-01-23T02:10:44.598Z,9.43
2019-01-23T02:15:51.463Z,7.10
2019-01-23T02:20:58.668Z,5.03
2019-01-23T02:26:05.993Z,7.50
2019-01-23T02:31:32.347Z,4.93
2019-01-23T02:36:38.405Z,4.17
2019-01-23T02:41:45.680Z,3.53
2019-01-23T02:46:52.483Z,5.00
2019-01-23T02:52:00.102Z,2.93
2019-01-23T02:57:07.508Z,8.40
2019-01-23T03:02:14.604Z,5.47
2019-01-23T03:07:21.237Z,8.07
2019-01-23T03:12:28.484Z,4.83
2019-01-23T03:17:35.655Z,5.30
2019-01-23T03:22:41.662Z,3.33
2019-01-23T03:27:48.511Z,7.47
2019-01-23T03:32:55.303Z,2.97
2019-01-23T03:38:02.102Z,4.83
2019-01-23T03:43:08.103Z,6.33
2019-01-23T03:48:16.267Z,8.07
2019-01-23T03:53:23.617Z,6.77
2019-01-23T03:58:30.939Z,1.60
2019-01-23T04:03:38.356Z,1.23
2019-01-23T04:08:45.630Z,5.30
2019-01-23T04:13:54.734Z,4.50
2019-01-23T04:19:01.333Z,4.27
2019-01-23T04:24:09.113Z,6.70
2019-01-23T04:29:14.900Z,7.03
2019-01-23T04:34:21.134Z,8.53
2019-01-23T04:39:27.051Z,9.80
2019-01-23T04:44:33.282Z,8.60
2019-01-23T04:49:39.137Z,9.80
2019-01-23T04:54:46.709Z,8.10
2019-01-23T04:59:52.904Z,8.53
2019-01-23T05:04:59.155Z,10.40
2019-01-23T05:10:05.801Z,11.17
2019-01-23T05:15:12.239Z,10.63
2019-01-23T05:20:18.784Z,11.03
2019-01-23T05:25:26.283Z,6.97
2019-01-23T05:30:35.618Z,10.50
2019-01-23T05:35:42.282Z,4.87
2019-01-23T05:40:48.232Z,8.23
2019-01-23T05:45:55.444Z,8.87
2019-01-23T05:51:01.787Z,10.77
2019-01-23T05:56:08.940Z,12.57
2019-01-23T06:01:15.748Z,11.20
2019-01-23T06:06:22.850Z,10.13
2019-01-23T06:11:29.978Z,12.13
2019-01-23T06:16:36.055Z,10.70
2019-01-23T06:21:42.053Z,13.67
2019-01-23T06:26:49.693Z,13.73
2019-01-23T06:31:56.224Z,12.83
2019-01-23T06:37:02.615Z,10.80
2019-01-23T06:42:11.125Z,12.20
2019-01-23T06:47:18.275Z,11.60
2019-01-23T06:52:26.461Z,11.20
2019-01-23T06:57:53.961Z,13.40
2019-01-23T07:02:59.873Z,12.60
2019-01-23T07:08:06.847Z,11.67
2019-01-23T07:13:12.890Z,12.20
2019-01-23T07:18:20.038Z,12.83
2019-01-23T07:23:27.954Z,12.70
2019-01-23T07:28:34.214Z,12.40
2019-01-23T07:33:40.722Z,13.27
2019-01-23T07:38:47.343Z,11.37
2019-01-23T07:43:53.856Z,13.23
2019-01-23T07:49:03.643Z,13.07
2019-01-23T07:54:10.478Z,12.50
2019-01-23T07:59:17.853Z,11.07
2019-01-23T08:04:25.459Z,12.17
2019-01-23T08:09:31.283Z,12.53
2019-01-23T08:14:37.665Z,12.60
2019-01-23T08:19:44.952Z,11.80
2019-01-23T08:24:55.539Z,12.10
2019-01-23T08:30:02.641Z,13.03
2019-01-23T08:35:10.456Z,11.83
2019-01-23T08:40:16.867Z,12.90
2019-01-23T08:45:23.035Z,13.03
2019-01-23T08:50:36.721Z,13.07
2019-01-23T08:55:44.263Z,12.07
2019-01-23T09:00:51.421Z,13.30
2019-01-23T09:05:57.821Z,11.57
2019-01-23T09:11:05.760Z,12.83
2019-01-23T09:16:12.203Z,12.90
2019-01-23T09:21:20.263Z,12.60
2019-01-23T09:26:27.624Z,13.53
2019-01-23T09:32:27.317Z,11.53
2019-01-23T09:38:26.761Z,11.47
2019-01-23T09:44:33.169Z,9.97
2019-01-23T09:50:20.813Z,11.97
2019-01-23T09:55:45.734Z,10.97
2019-01-23T10:00:59.546Z,14.70
2019-01-23T10:06:02.050Z,15.00
2019-01-23T10:11:08.306Z,16.43
2019-01-23T10:16:17.743Z,13.47
2019-01-23T10:21:24.400Z,12.13
2019-01-23T10:26:31.827Z,17.43
2019-01-23T10:31:38.164Z,15.07
2019-01-23T10:36:45.339Z,13.33
2019-01-23T10:41:52.703Z,12.77
2019-01-23T10:46:59.212Z,13.83
2019-01-23T10:52:06.554Z,13.57
2019-01-23T10:57:13.347Z,13.83
2019-01-23T11:02:21.188Z,12.93
2019-01-23T11:07:28.393Z,13.30
2019-01-23T11:12:34.461Z,13.90
2019-01-23T11:17:40.871Z,14.20
2019-01-23T11:22:48.231Z,13.33
2019-01-23T11:27:54.669Z,13.00
2019-01-23T11:33:02.429Z,15.27
2019-01-23T11:38:09.071Z,14.67
2019-01-23T11:43:17.230Z,14.17
2019-01-23T11:48:24.783Z,14.20
2019-01-23T11:53:30.802Z,14.97
2019-01-23T11:58:37.299Z,13.27
2019-01-23T12:03:44.600Z,12.63
2019-01-23T12:08:51.020Z,13.77
2019-01-23T12:13:58.190Z,15.07
2019-01-23T12:19:05.526Z,19.10
2019-01-23T12:24:11.479Z,13.40
2019-01-23T12:29:18.620Z,13.27
2019-01-23T12:34:25.081Z,12.50
2019-01-23T12:39:32.329Z,13.50
2019-01-23T12:44:39.478Z,15.33
2019-01-23T12:49:46.499Z,14.10
2019-01-23T12:54:52.844Z,14.20
2019-01-23T13:00:05.126Z,13.67
2019-01-23T13:05:10.722Z,14.67
2019-01-23T13:10:19.544Z,13.10
2019-01-23T13:15:26.946Z,21.07
2019-01-23T13:20:32.943Z,14.90
2019-01-23T13:25:39.947Z,11.50
2019-01-23T13:30:46.128Z,11.83
2019-01-23T13:35:52.080Z,11.13
2019-01-23T13:40:58.283Z,11.70
2019-01-23T13:46:06.193Z,12.33
2019-01-23T13:51:12.402Z,13.53
2019-01-23T13:56:18.939Z,13.37
2019-01-23T14:01:24.994Z,14.00
2019-01-23T14:06:32.573Z,12.17
2019-01-23T14:11:39.812Z,11.73
2019-01-23T14:16:45.982Z,12.10
2019-01-23T14:21:53.048Z,12.70
2019-01-23T14:26:59.677Z,12.67
2019-01-23T14:32:07.521Z,12.27
2019-01-23T14:37:14.809Z,12.67
2019-01-23T14:42:22.243Z,11.07
2019-01-23T14:47:29.014Z,11.70
2019-01-23T14:52:36.295Z,12.70
2019-01-23T14:57:43.784Z,10.97
2019-01-23T15:02:51.052Z,10.13
2019-01-23T15:07:57.276Z,11.30
2019-01-23T15:13:05.203Z,12.00
2019-01-23T15:18:13.682Z,10.33
2019-01-23T15:23:21.091Z,11.63
2019-01-23T15:28:28.961Z,12.10
2019-01-23T15:33:37.690Z,10.30
2019-01-23T15:38:44.401Z,11.30
2019-01-23T15:43:50.549Z,10.23
2019-01-23T15:48:56.789Z,9.93
2019-01-23T15:54:03.597Z,10.50
2019-01-23T15:59:10.439Z,11.30
2019-01-23T16:04:18.227Z,10.40
2019-01-23T16:09:26.520Z,10.37
2019-01-23T16:14:32.511Z,11.77
2019-01-23T16:19:39.823Z,11.00
2019-01-23T16:24:45.840Z,12.93
2019-01-23T16:29:52.069Z,11.13
2019-01-23T16:34:58.606Z,12.10
2019-01-23T16:40:06.088Z,13.37
2019-01-23T16:45:13.884Z,11.00
2019-01-23T16:50:21.672Z,11.37
2019-01-23T16:55:29.271Z,11.40
2019-01-23T17:00:35.560Z,11.33
2019-01-23T17:05:42.215Z,11.47
2019-01-23T17:10:50.530Z,11.13
2019-01-23T17:15:58.342Z,11.57
2019-01-23T17:21:05.171Z,11.00
2019-01-23T17:26:12.254Z,10.93
2019-01-23T17:31:19.695Z,11.23
2019-01-23T17:36:27.141Z,12.87
2019-01-23T17:41:35.736Z,11.73
2019-01-23T17:46:45.459Z,10.90
2019-01-23T17:51:52.839Z,10.10
2019-01-23T17:56:59.056Z,10.00
2019-01-23T18:02:06.463Z,9.80
2019-01-23T18:07:13.715Z,11.50
2019-01-23T18:12:20.960Z,13.13
2019-01-23T18:17:29.650Z,10.03
2019-01-23T18:22:37.318Z,10.47
2019-01-23T18:27:44.981Z,11.43
2019-01-23T18:32:51.294Z,11.63
2019-01-23T18:38:35.118Z,11.87
2019-01-23T18:44:11.313Z,8.87
2019-01-23T18:49:43.671Z,11.33
2019-01-23T18:54:49.941Z,10.23
2019-01-23T18:59:59.221Z,11.77
2019-01-23T19:05:04.959Z,12.33
2019-01-23T19:10:18.915Z,10.80
2019-01-23T19:15:26.129Z,10.30
2019-01-23T19:20:33.258Z,10.13
2019-01-23T19:25:40.741Z,9.53
2019-01-23T19:30:47.486Z,9.17
2019-01-23T19:35:54.532Z,12.47
2019-01-23T19:41:01.486Z,10.33
2019-01-23T19:46:09.111Z,8.73
2019-01-23T19:51:16.399Z,9.17
2019-01-23T19:56:23.853Z,10.27
2019-01-23T20:01:30.585Z,10.33
2019-01-23T20:06:36.634Z,11.60
2019-01-23T20:11:43.404Z,11.00
2019-01-23T20:16:50.095Z,11.83
2019-01-23T20:21:56.591Z,10.03
2019-01-23T20:27:02.815Z,12.57
2019-01-23T20:32:10.078Z,11.60
2019-01-23T20:37:23.274Z,10.47
2019-01-23T20:42:24.926Z,8.17
2019-01-23T20:47:32.225Z,9.93
2019-01-23T20:52:39.404Z,9.53
2019-01-23T20:57:48.193Z,8.83
2019-01-23T21:02:54.213Z,8.17
2019-01-23T21:08:01.558Z,11.40
2019-01-23T21:13:10.066Z,10.03
2019-01-23T21:18:17.394Z,7.33
2019-01-23T21:23:24.678Z,8.50
2019-01-23T21:28:32.837Z,8.87
2019-01-23T21:33:42.192Z,9.20
2019-01-23T21:38:48.285Z,6.97
2019-01-23T21:43:56.356Z,6.83
2019-01-23T21:49:02.761Z,9.60
2019-01-23T21:54:09.138Z,7.50
2019-01-23T21:59:16.553Z,8.70
2019-01-23T22:04:24.554Z,6.70
2019-01-23T22:09:31.325Z,8.40
2019-01-23T22:14:37.936Z,8.67
2019-01-23T22:19:44.016Z,8.47
2019-01-23T22:24:51.670Z,7.83
2019-01-23T22:29:59.426Z,8.43
2019-01-23T22:35:08.231Z,9.37
2019-01-23T22:40:15.916Z,8.67
2019-01-23T22:45:22.109Z,9.47
2019-01-23T22:50:29.538Z,8.77
2019-01-23T22:55:40.510Z,8.43
2019-01-23T23:01:27.788Z,10.27
2019-01-23T23:06:54.890Z,11.63
2019-01-23T23:12:02.227Z,10.40
2019-01-23T23:17:09.829Z,12.33
2019-01-23T23:22:15.858Z,12.53
2019-01-23T23:27:21.837Z,12.57
2019-01-23T23:32:27.961Z,11.87
2019-01-23T23:37:35.865Z,12.77
2019-01-23T23:42:42.038Z,10.50
2019-01-23T23:47:49.633Z,10.60
2019-01-23T23:52:55.862Z,9.13
2019-01-23T23:58:03.483Z,11.40
